Time;durP1;ratioP1;P1;durP2;ratioP2;P2;SDS_P1;SDS_P2;PMS_P1;PMS_P2;Temp;Humidity;BMP_temperature;BMP_pressure;BME280_temperature;BME280_humidity;BME280_pressure;Samples;Min_cycle;Max_cycle;Signal;HPM_P1;HPM_P2
2022/08/08 06:06:05;;;;;;;1.02;0.98;;;;;;;;;;10454023;27;20294;-62
2022/08/08 06:11:06;;;;;;;2.05;1.30;;;;;;;;;;10478553;28;20882;-63
2022/08/08 06:16:12;;;;;;;0.95;0.95;;;;;;;;;;10470347;28;20701;-69
2022/08/08 06:21:37;;;;;;;0.90;0.90;;;;;;;;;;10461402;28;20220;-70
2022/08/08 06:26:42;;;;;;;1.02;1.02;;;;;;;;;;10478668;28;20226;-70
2022/08/08 06:31:44;;;;;;;1.00;1.00;;;;;;;;;;10469731;28;20221;-71
2022/08/08 06:36:45;;;;;;;1.13;0.98;;;;;;;;;;10470067;28;20704;-70
2022/08/08 06:41:49;;;;;;;1.05;1.05;;;;;;;;;;10471638;28;20280;-70
2022/08/08 06:46:52;;;;;;;1.00;1.00;;;;;;;;;;10477879;28;20276;-70
2022/08/08 06:51:54;;;;;;;0.90;0.90;;;;;;;;;;10468882;28;21121;-70
2022/08/08 06:56:58;;;;;;;1.23;0.93;;;;;;;;;;10477275;28;20229;-72
2022/08/08 07:02:02;;;;;;;1.40;1.30;;;;;;;;;;10477444;28;20256;-71
2022/08/08 07:07:08;;;;;;;1.10;1.10;;;;;;;;;;10473584;28;20205;-71
2022/08/08 07:12:11;;;;;;;1.13;1.13;;;;;;;;;;10476528;28;20378;-70
2022/08/08 07:17:17;;;;;;;0.80;0.80;;;;;;;;;;10447574;28;20210;-71
2022/08/08 07:22:23;;;;;;;0.70;0.70;;;;;;;;;;10436826;28;20235;-70
2022/08/08 07:27:26;;;;;;;1.30;0.93;;;;;;;;;;10448403;28;20211;-70
2022/08/08 07:32:28;;;;;;;0.90;0.90;;;;;;;;;;10444735;28;20218;-70
2022/08/08 07:37:30;;;;;;;0.60;0.60;;;;;;;;;;10438374;28;20568;-70
2022/08/08 07:42:31;;;;;;;0.90;0.90;;;;;;;;;;10451112;28;20284;-70
2022/08/08 07:47:33;;;;;;;0.68;0.68;;;;;;;;;;10442323;28;20803;-70
2022/08/08 07:52:35;;;;;;;0.80;0.80;;;;;;;;;;10446180;28;20218;-70
2022/08/08 07:57:43;;;;;;;0.95;0.95;;;;;;;;;;10448222;28;20268;-70
2022/08/08 08:03:02;;;;;;;0.60;0.60;;;;;;;;;;10447262;28;20227;-69
2022/08/08 08:08:06;;;;;;;1.30;0.70;;;;;;;;;;10463261;28;20210;-69
2022/08/08 08:13:21;;;;;;;0.60;0.60;;;;;;;;;;10437583;28;20218;-69
2022/08/08 08:18:24;;;;;;;0.60;0.60;;;;;;;;;;10446489;28;20218;-70
2022/08/08 08:23:26;;;;;;;0.70;0.70;;;;;;;;;;10430413;28;20242;-66
2022/08/08 08:28:38;;;;;;;0.50;0.50;;;;;;;;;;10432025;28;20218;-72
2022/08/08 08:33:40;;;;;;;0.60;0.60;;;;;;;;;;10440007;28;20219;-70
2022/08/08 08:38:43;;;;;;;0.43;0.43;;;;;;;;;;10441734;28;20216;-71
2022/08/08 08:43:48;;;;;;;0.60;0.60;;;;;;;;;;10428492;28;20230;-67
2022/08/08 08:48:50;;;;;;;0.60;0.60;;;;;;;;;;10432527;28;20223;-69
2022/08/08 08:53:54;;;;;;;0.40;0.40;;;;;;;;;;10432770;28;20745;-70
2022/08/08 08:59:01;;;;;;;0.30;0.30;;;;;;;;;;10454439;28;20678;-70
2022/08/08 09:04:21;;;;;;;0.40;0.40;;;;;;;;;;10429999;28;20230;-70
2022/08/08 09:09:25;;;;;;;0.50;0.50;;;;;;;;;;10439851;28;20309;-69
2022/08/08 09:14:28;;;;;;;0.30;0.30;;;;;;;;;;10428998;28;20322;-69
2022/08/08 09:19:32;;;;;;;0.40;0.40;;;;;;;;;;10436540;28;20814;-69
2022/08/08 09:24:36;;;;;;;0.32;0.32;;;;;;;;;;10435082;28;20249;-69
2022/08/08 09:29:52;;;;;;;0.50;0.50;;;;;;;;;;10435287;28;22589;-70
2022/08/08 09:34:55;;;;;;;0.30;0.30;;;;;;;;;;10426544;28;20212;-68
2022/08/08 09:40:02;;;;;;;0.32;0.32;;;;;;;;;;10435294;28;20213;-69
2022/08/08 09:45:08;;;;;;;0.30;0.30;;;;;;;;;;10442186;28;20210;-68
2022/08/08 09:50:10;;;;;;;0.40;0.40;;;;;;;;;;10434755;28;20226;-69
2022/08/08 09:55:11;;;;;;;0.40;0.40;;;;;;;;;;10436780;28;21230;-68
2022/08/08 10:00:13;;;;;;;0.30;0.30;;;;;;;;;;10438046;28;20199;-68
2022/08/08 10:05:24;;;;;;;0.40;0.40;;;;;;;;;;10436341;28;20318;-68
2022/08/08 10:10:26;;;;;;;0.30;0.30;;;;;;;;;;10438076;28;20256;-66
2022/08/08 10:15:28;;;;;;;0.30;0.30;;;;;;;;;;10442343;28;20222;-68
2022/08/08 10:20:37;;;;;;;0.40;0.40;;;;;;;;;;10445405;28;20828;-68
2022/08/08 10:25:41;;;;;;;0.30;0.30;;;;;;;;;;10437645;28;20217;-68
2022/08/08 10:30:54;;;;;;;0.30;0.30;;;;;;;;;;10439919;28;20203;-69
2022/08/08 10:35:55;;;;;;;0.30;0.30;;;;;;;;;;10434907;28;20223;-68
2022/08/08 10:41:00;;;;;;;0.30;0.30;;;;;;;;;;10444286;28;20210;-70
2022/08/08 10:46:02;;;;;;;2.35;0.40;;;;;;;;;;10432863;28;20302;-70
2022/08/08 10:51:12;;;;;;;0.57;0.57;;;;;;;;;;10405111;28;20321;-70
2022/08/08 10:56:13;;;;;;;0.30;0.30;;;;;;;;;;10415667;28;20286;-69
2022/08/08 11:01:14;;;;;;;0.35;0.35;;;;;;;;;;10408602;28;20207;-69
2022/08/08 11:06:16;;;;;;;0.30;0.30;;;;;;;;;;10408853;28;20281;-69
2022/08/08 11:11:17;;;;;;;0.30;0.30;;;;;;;;;;10393702;28;20219;-69
2022/08/08 11:16:22;;;;;;;0.32;0.32;;;;;;;;;;10403051;28;20703;-69
2022/08/08 11:21:24;;;;;;;0.30;0.30;;;;;;;;;;10407450;28;20215;-69
2022/08/08 11:26:27;;;;;;;0.40;0.40;;;;;;;;;;10408064;28;20238;-69
2022/08/08 11:31:30;;;;;;;0.30;0.30;;;;;;;;;;10405825;28;20690;-68
2022/08/08 11:36:36;;;;;;;0.40;0.40;;;;;;;;;;10408019;28;20215;-69
2022/08/08 11:41:37;;;;;;;1.20;0.60;;;;;;;;;;10406671;28;20215;-69
2022/08/08 11:46:39;;;;;;;0.40;0.40;;;;;;;;;;10400743;28;20317;-69
2022/08/08 11:51:41;;;;;;;0.30;0.30;;;;;;;;;;10403540;28;20247;-69
2022/08/08 11:56:42;;;;;;;0.35;0.30;;;;;;;;;;10402992;28;20235;-69
2022/08/08 12:01:43;;;;;;;0.30;0.30;;;;;;;;;;10398396;28;20222;-70
2022/08/08 12:06:44;;;;;;;0.35;0.35;;;;;;;;;;10403695;28;20610;-69
2022/08/08 12:11:45;;;;;;;0.40;0.40;;;;;;;;;;10408667;28;20231;-69
2022/08/08 12:16:51;;;;;;;0.40;0.40;;;;;;;;;;10405390;28;20207;-69
2022/08/08 12:22:04;;;;;;;0.40;0.40;;;;;;;;;;10399509;28;20203;-69
2022/08/08 12:27:15;;;;;;;0.40;0.40;;;;;;;;;;10396249;28;20218;-69
2022/08/08 12:32:17;;;;;;;0.38;0.38;;;;;;;;;;10400948;28;20234;-69
2022/08/08 12:37:22;;;;;;;0.45;0.45;;;;;;;;;;10401504;28;20246;-69
2022/08/08 12:42:23;;;;;;;0.40;0.40;;;;;;;;;;10405139;28;20214;-69
2022/08/08 12:47:27;;;;;;;0.40;0.40;;;;;;;;;;10407340;28;20222;-69
2022/08/08 12:52:33;;;;;;;0.30;0.30;;;;;;;;;;10403065;28;20223;-69
2022/08/08 12:57:34;;;;;;;0.45;0.45;;;;;;;;;;10398164;28;20208;-69
2022/08/08 13:02:38;;;;;;;0.35;0.35;;;;;;;;;;10404470;28;20214;-69
2022/08/08 13:07:40;;;;;;;0.40;0.40;;;;;;;;;;10400817;28;20571;-69
2022/08/08 13:12:42;;;;;;;0.40;0.40;;;;;;;;;;10389525;28;20223;-69
2022/08/08 13:17:43;;;;;;;0.43;0.43;;;;;;;;;;10401139;28;20223;-69
2022/08/08 13:22:45;;;;;;;0.38;0.38;;;;;;;;;;10397972;28;20215;-69
2022/08/08 13:27:53;;;;;;;0.50;0.50;;;;;;;;;;10400827;28;20302;-70
2022/08/08 13:32:55;;;;;;;0.40;0.40;;;;;;;;;;10401991;28;20238;-70
2022/08/08 13:38:00;;;;;;;0.40;0.40;;;;;;;;;;10398591;28;20226;-71
2022/08/08 13:43:01;;;;;;;0.57;0.57;;;;;;;;;;10399558;28;20218;-69
2022/08/08 13:48:02;;;;;;;0.65;0.55;;;;;;;;;;10398985;28;20703;-71
2022/08/08 13:53:03;;;;;;;1.17;0.40;;;;;;;;;;10390703;28;20215;-70
2022/08/08 13:58:05;;;;;;;0.50;0.50;;;;;;;;;;10405149;28;20242;-70
2022/08/08 14:03:06;;;;;;;0.40;0.40;;;;;;;;;;10392858;28;20235;-71
2022/08/08 14:08:07;;;;;;;0.45;0.45;;;;;;;;;;10391060;28;20209;-71
2022/08/08 14:13:14;;;;;;;0.50;0.50;;;;;;;;;;10394219;28;20373;-69
2022/08/08 14:18:25;;;;;;;0.52;0.52;;;;;;;;;;10395835;28;20758;-70
2022/08/08 14:23:26;;;;;;;0.63;0.60;;;;;;;;;;10402945;28;20264;-70
2022/08/08 14:28:27;;;;;;;0.38;0.38;;;;;;;;;;10412630;28;20234;-72
2022/08/08 14:33:32;;;;;;;0.50;0.50;;;;;;;;;;10380175;28;20592;-70
2022/08/08 14:38:33;;;;;;;0.50;0.50;;;;;;;;;;10404655;28;20214;-70
2022/08/08 14:43:44;;;;;;;0.40;0.40;;;;;;;;;;10408061;28;20215;-70
2022/08/08 14:48:45;;;;;;;0.50;0.50;;;;;;;;;;10400062;28;20879;-71
2022/08/08 14:53:47;;;;;;;0.60;0.60;;;;;;;;;;10398007;28;20226;-71
2022/08/08 14:58:48;;;;;;;0.50;0.50;;;;;;;;;;10401368;28;20217;-71
2022/08/08 15:03:49;;;;;;;0.40;0.40;;;;;;;;;;10401326;28;20285;-71
2022/08/08 15:08:50;;;;;;;0.50;0.50;;;;;;;;;;10398959;28;20207;-71
2022/08/08 15:13:51;;;;;;;0.47;0.47;;;;;;;;;;10406065;28;20264;-71
2022/08/08 15:18:52;;;;;;;0.60;0.60;;;;;;;;;;10408355;28;20215;-71
2022/08/08 15:23:53;;;;;;;0.50;0.50;;;;;;;;;;10410307;28;20211;-70
2022/08/08 15:29:14;;;;;;;0.50;0.50;;;;;;;;;;10410992;28;20239;-71
2022/08/08 15:34:15;;;;;;;0.45;0.45;;;;;;;;;;10461349;28;20242;-70
2022/08/08 15:39:16;;;;;;;0.50;0.50;;;;;;;;;;10470632;28;20210;-71
2022/08/08 15:44:17;;;;;;;0.50;0.50;;;;;;;;;;10503594;28;20210;-71
2022/08/08 15:49:19;;;;;;;1.35;0.57;;;;;;;;;;10471250;28;20221;-70
2022/08/08 15:54:20;;;;;;;0.50;0.50;;;;;;;;;;10453953;28;21025;-70
2022/08/08 15:59:21;;;;;;;0.40;0.40;;;;;;;;;;10493332;28;20216;-71
2022/08/08 16:04:22;;;;;;;0.50;0.50;;;;;;;;;;10496538;28;20337;-71
2022/08/08 16:09:23;;;;;;;0.70;0.70;;;;;;;;;;10497758;28;20685;-70
2022/08/08 16:14:25;;;;;;;0.50;0.50;;;;;;;;;;10498353;28;20224;-70
2022/08/08 16:19:26;;;;;;;0.60;0.60;;;;;;;;;;10487463;28;20216;-70
2022/08/08 16:24:27;;;;;;;0.52;0.52;;;;;;;;;;10497910;28;20221;-70
2022/08/08 16:29:44;;;;;;;0.60;0.60;;;;;;;;;;10451221;28;20245;-69
2022/08/08 16:34:45;;;;;;;0.55;0.55;;;;;;;;;;10447797;28;20217;-70
2022/08/08 16:39:46;;;;;;;0.50;0.50;;;;;;;;;;10467147;28;20221;-70
2022/08/08 16:44:47;;;;;;;0.43;0.43;;;;;;;;;;10482942;28;20248;-67
2022/08/08 16:49:48;;;;;;;0.60;0.60;;;;;;;;;;10480771;28;20304;-66
2022/08/08 16:54:49;;;;;;;0.60;0.60;;;;;;;;;;10487528;28;20354;-66
2022/08/08 16:59:50;;;;;;;0.60;0.60;;;;;;;;;;10490499;28;20225;-67
2022/08/08 17:04:52;;;;;;;0.50;0.50;;;;;;;;;;10482885;28;20226;-66
2022/08/08 17:09:53;;;;;;;0.43;0.43;;;;;;;;;;10434551;28;20345;-66
2022/08/08 17:14:54;;;;;;;0.60;0.60;;;;;;;;;;10492906;28;20331;-67
2022/08/08 17:19:55;;;;;;;0.43;0.43;;;;;;;;;;10463277;28;20652;-67
2022/08/08 17:24:56;;;;;;;0.57;0.57;;;;;;;;;;10478816;28;20260;-66
2022/08/08 17:29:57;;;;;;;0.60;0.60;;;;;;;;;;10494079;28;20224;-67
2022/08/08 17:34:58;;;;;;;0.60;0.60;;;;;;;;;;10487081;28;20275;-65
2022/08/08 17:39:59;;;;;;;0.70;0.70;;;;;;;;;;10483417;28;20217;-67
2022/08/08 17:45:00;;;;;;;0.70;0.70;;;;;;;;;;10485942;28;20204;-69
2022/08/08 17:50:01;;;;;;;0.50;0.50;;;;;;;;;;10494109;28;20224;-69
2022/08/08 17:55:03;;;;;;;0.60;0.60;;;;;;;;;;10496475;28;20206;-70
2022/08/08 18:00:05;;;;;;;0.60;0.60;;;;;;;;;;10492368;28;20216;-71
2022/08/08 18:05:07;;;;;;;0.52;0.52;;;;;;;;;;10487400;28;20226;-68
2022/08/08 18:10:08;;;;;;;0.40;0.40;;;;;;;;;;10486807;28;20221;-68
2022/08/08 18:15:09;;;;;;;0.60;0.60;;;;;;;;;;10488052;28;20198;-73
2022/08/08 18:20:11;;;;;;;0.50;0.50;;;;;;;;;;10458692;28;20198;-73
2022/08/08 18:25:12;;;;;;;0.50;0.50;;;;;;;;;;10490402;28;20190;-74
2022/08/08 18:30:13;;;;;;;0.60;0.60;;;;;;;;;;10487637;28;20343;-78
2022/08/08 18:35:14;;;;;;;0.50;0.50;;;;;;;;;;10492593;28;20236;-74
2022/08/08 18:40:15;;;;;;;0.60;0.60;;;;;;;;;;10490301;28;20653;-73
2022/08/08 18:45:16;;;;;;;0.60;0.60;;;;;;;;;;10493697;28;20185;-73
2022/08/08 18:50:17;;;;;;;0.65;0.65;;;;;;;;;;10481283;28;20642;-73
2022/08/08 18:55:18;;;;;;;0.70;0.70;;;;;;;;;;10462684;28;20225;-72
2022/08/08 19:00:20;;;;;;;0.65;0.65;;;;;;;;;;10488371;28;20190;-74
2022/08/08 19:05:21;;;;;;;0.65;0.63;;;;;;;;;;10440619;28;20219;-74
2022/08/08 19:10:22;;;;;;;0.80;0.80;;;;;;;;;;10451340;28;20271;-73
2022/08/08 19:15:23;;;;;;;0.82;0.82;;;;;;;;;;10454460;28;20214;-79
2022/08/08 19:20:24;;;;;;;0.80;0.80;;;;;;;;;;10433267;28;20220;-73
2022/08/08 19:25:25;;;;;;;0.80;0.80;;;;;;;;;;10422064;28;20182;-69
2022/08/08 19:30:27;;;;;;;0.70;0.70;;;;;;;;;;10449695;28;20721;-70
2022/08/08 19:35:28;;;;;;;0.75;0.75;;;;;;;;;;10452045;28;20206;-70
2022/08/08 19:40:29;;;;;;;0.70;0.70;;;;;;;;;;10445184;28;20766;-70
2022/08/08 19:45:30;;;;;;;0.80;0.80;;;;;;;;;;10449375;28;20213;-71
2022/08/08 19:50:32;;;;;;;0.77;0.77;;;;;;;;;;10426844;28;20221;-71
2022/08/08 19:55:34;;;;;;;1.85;0.90;;;;;;;;;;10444238;28;20314;-70
2022/08/08 20:00:36;;;;;;;0.70;0.70;;;;;;;;;;10451827;28;20716;-73
2022/08/08 20:05:37;;;;;;;0.90;0.90;;;;;;;;;;10483007;28;20264;-73
2022/08/08 20:10:38;;;;;;;0.90;0.90;;;;;;;;;;10494563;28;20265;-73
2022/08/08 20:15:40;;;;;;;0.73;0.68;;;;;;;;;;10462575;28;20280;-73
2022/08/08 20:20:41;;;;;;;0.95;0.73;;;;;;;;;;10493206;28;20333;-73
2022/08/08 20:25:42;;;;;;;0.90;0.80;;;;;;;;;;10475489;28;20217;-73
2022/08/08 20:30:44;;;;;;;0.77;0.77;;;;;;;;;;10478325;28;20213;-73
2022/08/08 20:35:45;;;;;;;0.90;0.90;;;;;;;;;;10492936;28;21206;-73
2022/08/08 20:40:47;;;;;;;0.80;0.80;;;;;;;;;;10463848;28;20433;-73
2022/08/08 20:45:48;;;;;;;0.63;0.63;;;;;;;;;;10496418;28;20209;-73
2022/08/08 20:50:49;;;;;;;0.70;0.70;;;;;;;;;;10491367;28;20213;-73
2022/08/08 20:55:50;;;;;;;0.60;0.60;;;;;;;;;;10489988;28;20232;-73
2022/08/08 21:00:51;;;;;;;0.90;0.90;;;;;;;;;;10493487;28;20305;-73
2022/08/08 21:05:52;;;;;;;0.98;0.98;;;;;;;;;;10477841;28;20252;-73
2022/08/08 21:10:53;;;;;;;0.90;0.90;;;;;;;;;;10470890;28;20323;-73
2022/08/08 21:15:54;;;;;;;0.93;0.93;;;;;;;;;;10493868;28;20229;-73
2022/08/08 21:20:55;;;;;;;1.55;0.90;;;;;;;;;;10493897;28;20320;-73
2022/08/08 21:25:56;;;;;;;0.70;0.70;;;;;;;;;;10491336;28;20217;-73
2022/08/08 21:30:57;;;;;;;0.70;0.70;;;;;;;;;;10469753;28;20243;-73
2022/08/08 21:35:59;;;;;;;0.75;0.75;;;;;;;;;;10493297;28;20220;-74
2022/08/08 21:41:00;;;;;;;0.85;0.85;;;;;;;;;;10499839;28;21134;-73
2022/08/08 21:46:05;;;;;;;0.75;0.75;;;;;;;;;;10490468;28;20213;-73
2022/08/08 21:51:07;;;;;;;0.60;0.60;;;;;;;;;;10490131;28;20249;-73
2022/08/08 21:56:08;;;;;;;0.80;0.80;;;;;;;;;;10494568;28;20316;-73
2022/08/08 22:01:09;;;;;;;0.75;0.75;;;;;;;;;;10493204;28;20210;-73
2022/08/08 22:06:10;;;;;;;0.80;0.80;;;;;;;;;;10487642;28;20282;-74
2022/08/08 22:11:11;;;;;;;0.80;0.80;;;;;;;;;;10485459;28;20217;-74
2022/08/08 22:16:13;;;;;;;0.90;0.90;;;;;;;;;;10493146;28;20229;-73
2022/08/08 22:21:14;;;;;;;0.95;0.95;;;;;;;;;;10493429;28;20226;-73
2022/08/08 22:26:21;;;;;;;1.08;1.02;;;;;;;;;;10490368;28;20218;-73
2022/08/08 22:31:23;;;;;;;0.90;0.90;;;;;;;;;;10474607;28;20562;-74
2022/08/08 22:36:24;;;;;;;0.70;0.70;;;;;;;;;;10457105;28;20217;-73
2022/08/08 22:41:25;;;;;;;0.73;0.73;;;;;;;;;;10485512;28;21043;-74
2022/08/08 22:46:26;;;;;;;0.60;0.60;;;;;;;;;;10490445;28;20245;-74
2022/08/08 22:51:28;;;;;;;0.90;0.90;;;;;;;;;;10494075;28;20250;-74
2022/08/08 22:56:30;;;;;;;0.60;0.60;;;;;;;;;;10489630;28;20940;-74
2022/08/08 23:01:31;;;;;;;0.70;0.70;;;;;;;;;;10490414;28;20249;-74
2022/08/08 23:06:32;;;;;;;0.75;0.75;;;;;;;;;;10486498;28;20221;-74
2022/08/08 23:11:33;;;;;;;0.85;0.85;;;;;;;;;;10488541;28;20269;-74
2022/08/08 23:16:34;;;;;;;1.10;1.10;;;;;;;;;;10474277;28;20229;-72
2022/08/08 23:21:35;;;;;;;1.17;1.05;;;;;;;;;;10476213;28;20697;-73
2022/08/08 23:26:36;;;;;;;0.90;0.90;;;;;;;;;;10494199;28;20220;-73
2022/08/08 23:31:37;;;;;;;0.90;0.90;;;;;;;;;;10441456;28;20211;-74
2022/08/08 23:36:38;;;;;;;1.02;1.02;;;;;;;;;;10488330;28;20226;-74
2022/08/08 23:41:39;;;;;;;0.80;0.80;;;;;;;;;;10488992;28;20232;-74
2022/08/08 23:46:40;;;;;;;0.90;0.90;;;;;;;;;;10493405;28;20224;-73
2022/08/08 23:51:42;;;;;;;1.10;1.10;;;;;;;;;;10490108;28;20761;-73
2022/08/08 23:56:43;;;;;;;0.90;0.90;;;;;;;;;;10487025;28;20251;-72
